Time;durP1;ratioP1;P1;durP2;ratioP2;P2;SDS_P1;SDS_P2;PMS_P1;PMS_P2;Temp;Humidity;BMP_temperature;BMP_pressure;BME280_temperature;BME280_humidity;BME280_pressure;Samples;Min_cycle;Max_cycle;Signal;HPM_P1;HPM_P2
2023/02/12 00:00:00;;;;;;;;;;;;;;;-142.41;100.00;64449.00;4937512;29;20339;-65
2023/02/12 00:02:25;;;;;;;;;;;;;;;-142.41;100.00;64449.00;4937361;29;19933;-67
2023/02/12 00:04:50;;;;;;;;;;;;;;;-142.41;100.00;64449.00;4938378;29;19935;-68
2023/02/12 00:07:16;;;;;;;;;;;;;;;-142.41;100.00;64449.00;4938766;29;19953;-64
2023/02/12 00:09:42;;;;;;;;;;;;;;;-142.41;100.00;64449.00;4921691;29;19921;-66
2023/02/12 00:12:08;;;;;;;;;;;;;;;-142.41;100.00;64449.00;4937508;29;19910;-69
2023/02/12 00:14:33;;;;;;;;;;;;;;;-142.41;100.00;64449.00;4936139;29;19918;-71
2023/02/12 00:16:59;;;;;;;;;;;;;;;-142.41;100.00;64449.00;4937200;29;19918;-66
2023/02/12 00:19:24;;;;;;;;;;;;;;;-142.41;100.00;64449.00;4935712;29;19911;-66
2023/02/12 00:21:49;;;;;;;;;;;;;;;-142.41;100.00;64449.00;4937178;29;19911;-67
2023/02/12 00:24:15;;;;;;;;;;;;;;;-142.41;100.00;64449.00;4921149;29;20358;-66
2023/02/12 00:26:40;;;;;;;;;;;;;;;-142.41;100.00;64449.00;4937811;29;20300;-69
2023/02/12 00:29:06;;;;;;;;;;;;;;;-142.41;100.00;64449.00;4937805;29;19917;-66
2023/02/12 00:31:31;;;;;;;;;;;;;;;-142.41;100.00;64449.00;4920942;29;19917;-70
2023/02/12 00:33:58;;;;;;;;;;;;;;;-142.41;100.00;64449.00;4938167;29;19918;-67
2023/02/12 00:36:25;;;;;;;;;;;;;;;-142.41;100.00;64449.00;4939946;29;19958;-68
2023/02/12 00:38:51;;;;;;;;;;;;;;;-142.41;100.00;64449.00;4938399;29;20005;-65
2023/02/12 00:41:16;;;;;;;;;;;;;;;-142.41;100.00;64449.00;4937607;29;19911;-67
2023/02/12 00:43:42;;;;;;;;;;;;;;;-142.41;100.00;64449.00;4937536;29;20013;-68
2023/02/12 00:46:08;;;;;;;;;;;;;;;-142.41;100.00;64449.00;4937798;29;19933;-65
2023/02/12 00:48:33;;;;;;;;;;;;;;;-142.41;100.00;64449.00;4937509;29;19949;-66
2023/02/12 00:50:59;;;;;;;;;;;;;;;-142.41;100.00;64449.00;4937518;29;20319;-65
2023/02/12 00:53:24;;;;;;;;;;;;;;;-142.41;100.00;64449.00;4937342;29;19910;-69
2023/02/12 00:55:50;;;;;;;;;;;;;;;-142.41;100.00;64449.00;4920221;29;19911;-68
2023/02/12 00:58:18;;;;;;;;;;;;;;;-142.41;100.00;64449.00;4937188;29;19919;-66
2023/02/12 01:00:43;;;;;;;;;;;;;;;-142.41;100.00;64449.00;4937117;29;19910;-66
2023/02/12 01:03:09;;;;;;;;;;;;;;;-142.41;100.00;64449.00;4937298;29;19911;-67
2023/02/12 01:05:34;;;;;;;;;;;;;;;-142.41;100.00;64449.00;4937318;29;19914;-67
2023/02/12 01:08:00;;;;;;;;;;;;;;;-142.41;100.00;64449.00;4936879;29;19921;-65
2023/02/12 01:10:26;;;;;;;;;;;;;;;-142.41;100.00;64449.00;4919880;29;19922;-67
2023/02/12 01:12:51;;;;;;;;;;;;;;;-142.41;100.00;64449.00;4920057;29;19966;-64
2023/02/12 01:15:17;;;;;;;;;;;;;;;-142.41;100.00;64449.00;4937192;29;20277;-64
2023/02/12 01:17:42;;;;;;;;;;;;;;;-142.41;100.00;64449.00;4936880;29;19993;-67
2023/02/12 01:20:11;;;;;;;;;;;;;;;-142.41;100.00;64449.00;4936838;29;19910;-67
2023/02/12 01:22:37;;;;;;;;;;;;;;;-142.41;100.00;64449.00;4936945;29;19910;-68
2023/02/12 01:25:03;;;;;;;;;;;;;;;-142.41;100.00;64449.00;4936649;29;19915;-66
2023/02/12 01:27:28;;;;;;;;;;;;;;;-142.41;100.00;64449.00;4936911;29;19911;-66
2023/02/12 01:29:53;;;;;;;;;;;;;;;-142.41;100.00;64449.00;4936650;29;20373;-65
2023/02/12 01:32:19;;;;;;;;;;;;;;;-142.41;100.00;64449.00;4918959;29;20037;-68
2023/02/12 01:34:44;;;;;;;;;;;;;;;-142.41;100.00;64449.00;4936738;29;20359;-68
2023/02/12 01:37:09;;;;;;;;;;;;;;;-142.41;100.00;64449.00;4936639;29;19911;-69
2023/02/12 01:39:35;;;;;;;;;;;;;;;-142.41;100.00;64449.00;4936402;29;19938;-68
2023/02/12 01:42:00;;;;;;;;;;;;;;;-142.41;100.00;64449.00;4936458;29;19942;-66
2023/02/12 01:45:29;;;;;;;;;;;;;;;-142.41;100.00;64449.00;4936783;29;19977;-69
2023/02/12 01:47:55;;;;;;;;;;;;;;;-142.41;100.00;64449.00;4936104;29;19921;-69
2023/02/12 01:50:21;;;;;;;;;;;;;;;-142.41;100.00;64449.00;4919528;29;19962;-66
2023/02/12 01:52:50;;;;;;;;;;;;;;;-142.41;100.00;64449.00;4904474;29;19911;-67
2023/02/12 01:55:15;;;;;;;;;;;;;;;-142.41;100.00;64449.00;4936975;29;19990;-66
2023/02/12 01:57:42;;;;;;;;;;;;;;;-142.41;100.00;64449.00;4919393;29;19973;-69
2023/02/12 02:00:10;;;;;;;;;;;;;;;-142.41;100.00;64449.00;4936289;29;20402;-67
2023/02/12 02:02:36;;;;;;;;;;;;;;;-142.41;100.00;64449.00;4936699;29;19964;-68
2023/02/12 02:05:02;;;;;;;;;;;;;;;-142.41;100.00;64449.00;4937872;29;19911;-66
2023/02/12 02:07:29;;;;;;;;;;;;;;;-142.41;100.00;64449.00;4936002;29;19945;-68
2023/02/12 02:09:55;;;;;;;;;;;;;;;-142.41;100.00;64449.00;4936080;29;19918;-66
2023/02/12 02:15:05;;;;;;;;;;;;;;;-142.41;100.00;64449.00;4936112;29;19910;-69
2023/02/12 02:17:30;;;;;;;;;;;;;;;-142.41;100.00;64449.00;4935916;29;19965;-69
2023/02/12 02:20:02;;;;;;;;;;;;;;;-142.41;100.00;64449.00;4918895;29;19996;-66
2023/02/12 02:22:28;;;;;;;;;;;;;;;-142.41;100.00;64449.00;4935957;29;19910;-69
2023/02/12 02:25:06;;;;;;;;;;;;;;;-142.41;100.00;64449.00;4936183;29;20347;-68
2023/02/12 02:27:50;;;;;;;;;;;;;;;-142.41;100.00;64449.00;4935871;29;19911;-66
2023/02/12 02:30:33;;;;;;;;;;;;;;;-142.41;100.00;64449.00;4936016;29;20353;-69
2023/02/12 02:33:04;;;;;;;;;;;;;;;-142.41;100.00;64449.00;4918788;29;20178;-67
2023/02/12 02:35:39;;;;;;;;;;;;;;;-142.41;100.00;64449.00;4936049;29;20001;-63
2023/02/12 02:38:10;;;;;;;;;;;;;;;-142.41;100.00;64449.00;4918535;29;20013;-68
2023/02/12 02:40:59;;;;;;;;;;;;;;;-142.41;100.00;64449.00;4918702;29;19918;-68
2023/02/12 02:43:27;;;;;;;;;;;;;;;-142.41;100.00;64449.00;4935384;29;19957;-68
2023/02/12 02:45:58;;;;;;;;;;;;;;;-142.41;100.00;64449.00;4935485;29;20278;-67
2023/02/12 02:48:26;;;;;;;;;;;;;;;-142.41;100.00;64449.00;4935430;29;19962;-65
2023/02/12 02:50:54;;;;;;;;;;;;;;;-142.41;100.00;64449.00;4935687;29;19910;-67
2023/02/12 02:53:25;;;;;;;;;;;;;;;-142.41;100.00;64449.00;4936135;29;19918;-71
2023/02/12 02:55:53;;;;;;;;;;;;;;;-142.41;100.00;64449.00;4935935;29;19958;-67
2023/02/12 02:58:23;;;;;;;;;;;;;;;-142.41;100.00;64449.00;4935991;29;19910;-67
2023/02/12 03:00:58;;;;;;;;;;;;;;;-142.41;100.00;64449.00;4935570;29;19911;-65
2023/02/12 03:03:26;;;;;;;;;;;;;;;-142.41;100.00;64449.00;4935805;29;19982;-68
2023/02/12 03:05:53;;;;;;;;;;;;;;;-142.41;100.00;64449.00;4935628;29;19917;-67
2023/02/12 03:08:23;;;;;;;;;;;;;;;-142.41;100.00;64449.00;4935060;29;19921;-65
2023/02/12 03:10:52;;;;;;;;;;;;;;;-142.41;100.00;64449.00;4935260;29;19915;-68
2023/02/12 03:13:23;;;;;;;;;;;;;;;-142.41;100.00;64449.00;4935200;29;19917;-67
2023/02/12 03:15:56;;;;;;;;;;;;;;;-142.41;100.00;64449.00;4935149;29;19958;-67
2023/02/12 03:18:27;;;;;;;;;;;;;;;-142.41;100.00;64449.00;4935217;29;19910;-64
2023/02/12 03:20:56;;;;;;;;;;;;;;;-142.41;100.00;64449.00;4918159;29;19914;-68
2023/02/12 03:23:24;;;;;;;;;;;;;;;-142.41;100.00;64449.00;4935298;29;19934;-68
2023/02/12 03:25:55;;;;;;;;;;;;;;;-142.41;100.00;64449.00;4935082;29;20422;-68
2023/02/12 03:28:41;;;;;;;;;;;;;;;-142.41;100.00;64449.00;4935278;29;19910;-67
2023/02/12 03:31:25;;;;;;;;;;;;;;;-142.41;100.00;64449.00;4935284;29;20357;-67
2023/02/12 03:34:02;;;;;;;;;;;;;;;-142.41;100.00;64449.00;4921302;29;19911;-67
2023/02/12 03:36:44;;;;;;;;;;;;;;;-142.41;100.00;64449.00;4918355;29;19919;-66
2023/02/12 03:39:09;;;;;;;;;;;;;;;-142.41;100.00;64449.00;4935267;29;19934;-68
2023/02/12 03:41:58;;;;;;;;;;;;;;;-142.41;100.00;64449.00;4918004;29;20363;-66
2023/02/12 03:44:44;;;;;;;;;;;;;;;-142.41;100.00;64449.00;4934818;29;20319;-67
2023/02/12 03:47:18;;;;;;;;;;;;;;;-142.41;100.00;64449.00;4934887;29;19922;-67
2023/02/12 03:49:43;;;;;;;;;;;;;;;-142.41;100.00;64449.00;4934956;29;19950;-69
2023/02/12 03:52:08;;;;;;;;;;;;;;;-142.41;100.00;64449.00;4934996;29;19969;-70
2023/02/12 03:54:35;;;;;;;;;;;;;;;-142.41;100.00;64449.00;4934857;29;20366;-65
2023/02/12 03:57:04;;;;;;;;;;;;;;;-142.41;100.00;64449.00;4937267;29;19918;-67
2023/02/12 03:59:30;;;;;;;;;;;;;;;-142.41;100.00;64449.00;4938128;29;20017;-66
2023/02/12 04:01:57;;;;;;;;;;;;;;;-142.41;100.00;64449.00;4938729;29;19979;-65
2023/02/12 04:04:23;;;;;;;;;;;;;;;-142.41;100.00;64449.00;4938975;29;19969;-68
2023/02/12 04:06:51;;;;;;;;;;;;;;;-142.41;100.00;64449.00;4921142;29;19910;-69
2023/02/12 04:09:18;;;;;;;;;;;;;;;-142.41;100.00;64449.00;4938181;29;20370;-66
2023/02/12 04:11:49;;;;;;;;;;;;;;;-142.41;100.00;64449.00;4938955;29;19925;-66
2023/02/12 04:14:14;;;;;;;;;;;;;;;-142.41;100.00;64449.00;4921760;29;19918;-64
2023/02/12 04:16:44;;;;;;;;;;;;;;;-142.41;100.00;64449.00;4939165;29;19915;-65
2023/02/12 04:19:11;;;;;;;;;;;;;;;-142.41;100.00;64449.00;4938132;29;19918;-64
2023/02/12 04:21:57;;;;;;;;;;;;;;;-142.41;100.00;64449.00;4938220;29;20027;-64
2023/02/12 04:24:22;;;;;;;;;;;;;;;-142.41;100.00;64449.00;4937477;29;19953;-65
2023/02/12 04:26:47;;;;;;;;;;;;;;;-142.41;100.00;64449.00;4937937;29;19997;-66
2023/02/12 04:29:22;;;;;;;;;;;;;;;-142.41;100.00;64449.00;4937933;29;19915;-65
2023/02/12 04:31:47;;;;;;;;;;;;;;;-142.41;100.00;64449.00;4937793;29;19911;-64
2023/02/12 04:34:22;;;;;;;;;;;;;;;-142.41;100.00;64449.00;4937669;29;19922;-65
2023/02/12 04:36:56;;;;;;;;;;;;;;;-142.41;100.00;64449.00;4937870;29;19910;-65
2023/02/12 04:39:24;;;;;;;;;;;;;;;-142.41;100.00;64449.00;4937838;29;19910;-64
2023/02/12 04:41:50;;;;;;;;;;;;;;;-142.41;100.00;64449.00;4938781;29;20363;-63
2023/02/12 04:44:22;;;;;;;;;;;;;;;-142.41;100.00;64449.00;4937837;29;20002;-66
2023/02/12 04:46:47;;;;;;;;;;;;;;;-142.41;100.00;64449.00;4937781;29;20431;-66
2023/02/12 04:49:15;;;;;;;;;;;;;;;-142.41;100.00;64449.00;4937422;29;20301;-66
2023/02/12 04:51:41;;;;;;;;;;;;;;;-142.41;100.00;64449.00;4937859;29;20282;-64
2023/02/12 04:54:06;;;;;;;;;;;;;;;-142.41;100.00;64449.00;4937636;29;20339;-66
2023/02/12 04:56:31;;;;;;;;;;;;;;;-142.41;100.00;64449.00;4938066;29;20347;-65
2023/02/12 04:58:57;;;;;;;;;;;;;;;-142.41;100.00;64449.00;4920761;29;19933;-63
2023/02/12 05:01:23;;;;;;;;;;;;;;;-142.41;100.00;64449.00;4937788;29;19920;-64
2023/02/12 05:03:50;;;;;;;;;;;;;;;-142.41;100.00;64449.00;4937361;29;19959;-66
2023/02/12 05:06:15;;;;;;;;;;;;;;;-142.41;100.00;64449.00;4937184;29;19911;-65
2023/02/12 05:08:43;;;;;;;;;;;;;;;-142.41;100.00;64449.00;4936263;29;19914;-63
2023/02/12 05:11:09;;;;;;;;;;;;;;;-142.41;100.00;64449.00;4937222;29;19961;-64
2023/02/12 05:13:35;;;;;;;;;;;;;;;-142.41;100.00;64449.00;4920068;29;20426;-62
2023/02/12 05:16:04;;;;;;;;;;;;;;;-142.41;100.00;64449.00;4920095;29;19910;-65
2023/02/12 05:18:30;;;;;;;;;;;;;;;-142.41;100.00;64449.00;4936813;29;19910;-65
2023/02/12 05:20:58;;;;;;;;;;;;;;;-142.41;100.00;64449.00;4936773;29;20279;-64
2023/02/12 05:23:28;;;;;;;;;;;;;;;-142.41;100.00;64449.00;4937025;29;19917;-67
2023/02/12 05:25:53;;;;;;;;;;;;;;;-142.41;100.00;64449.00;4936847;29;19958;-65
2023/02/12 05:28:18;;;;;;;;;;;;;;;-142.41;100.00;64449.00;4936863;29;19966;-65
2023/02/12 05:30:44;;;;;;;;;;;;;;;-142.41;100.00;64449.00;4936940;29;19938;-65
2023/02/12 05:33:09;;;;;;;;;;;;;;;-142.41;100.00;64449.00;4938936;29;19917;-66
2023/02/12 05:35:34;;;;;;;;;;;;;;;-142.41;100.00;64449.00;4940503;29;19918;-64
2023/02/12 05:38:00;;;;;;;;;;;;;;;-142.41;100.00;64449.00;4940173;29;20009;-64
2023/02/12 05:40:25;;;;;;;;;;;;;;;-142.41;100.00;64449.00;4939545;29;19949;-64
2023/02/12 05:42:50;;;;;;;;;;;;;;;-142.41;100.00;64449.00;4939113;29;20282;-65
2023/02/12 05:45:16;;;;;;;;;;;;;;;-142.41;100.00;64449.00;4939206;29;19918;-65
2023/02/12 05:47:41;;;;;;;;;;;;;;;-142.41;100.00;64449.00;4936913;29;19917;-66
2023/02/12 05:50:07;;;;;;;;;;;;;;;-142.41;100.00;64449.00;4936586;29;19915;-68
2023/02/12 05:52:32;;;;;;;;;;;;;;;-142.41;100.00;64449.00;4936614;29;19921;-66
2023/02/12 05:54:57;;;;;;;;;;;;;;;-142.41;100.00;64449.00;4936239;29;19911;-65
2023/02/12 05:57:23;;;;;;;;;;;;;;;-142.41;100.00;64449.00;4936483;29;19910;-66
2023/02/12 05:59:48;;;;;;;;;;;;;;;-142.41;100.00;64449.00;4919044;29;19918;-65
2023/02/12 06:02:13;;;;;;;;;;;;;;;-142.41;100.00;64449.00;4936223;29;19911;-65
2023/02/12 06:04:39;;;;;;;;;;;;;;;-142.41;100.00;64449.00;4936109;29;20360;-66
2023/02/12 06:07:06;;;;;;;;;;;;;;;-142.41;100.00;64449.00;4936014;29;19958;-68
2023/02/12 06:09:32;;;;;;;;;;;;;;;-142.41;100.00;64449.00;4936266;29;20438;-64
2023/02/12 06:11:57;;;;;;;;;;;;;;;-142.41;100.00;64449.00;4936035;29;19961;-66
2023/02/12 06:14:22;;;;;;;;;;;;;;;-142.41;100.00;64449.00;4935882;29;19939;-64
2023/02/12 06:16:49;;;;;;;;;;;;;;;-142.41;100.00;64449.00;4935859;29;19918;-67
2023/02/12 06:19:15;;;;;;;;;;;;;;;-142.41;100.00;64449.00;4935482;29;20355;-66
2023/02/12 06:21:40;;;;;;;;;;;;;;;-142.41;100.00;64449.00;4935904;29;19921;-66
2023/02/12 06:24:05;;;;;;;;;;;;;;;-142.41;100.00;64449.00;4936287;29;19926;-63
2023/02/12 06:26:31;;;;;;;;;;;;;;;-142.41;100.00;64449.00;4936423;29;19954;-63
2023/02/12 06:28:56;;;;;;;;;;;;;;;-142.41;100.00;64449.00;4936028;29;20005;-65
2023/02/12 06:31:26;;;;;;;;;;;;;;;-142.41;100.00;64449.00;4937425;29;19918;-68
2023/02/12 06:33:52;;;;;;;;;;;;;;;-142.41;100.00;64449.00;4935798;29;19973;-68
2023/02/12 06:36:17;;;;;;;;;;;;;;;-142.41;100.00;64449.00;4935587;29;20303;-65
2023/02/12 06:38:43;;;;;;;;;;;;;;;-142.41;100.00;64449.00;4918513;29;19914;-66
2023/02/12 06:41:09;;;;;;;;;;;;;;;-142.41;100.00;64449.00;4935427;29;19911;-68
2023/02/12 06:43:34;;;;;;;;;;;;;;;-142.41;100.00;64449.00;4918470;29;19910;-67
2023/02/12 06:46:01;;;;;;;;;;;;;;;-142.41;100.00;64449.00;4941201;29;19953;-66
2023/02/12 06:48:26;;;;;;;;;;;;;;;-142.41;100.00;64449.00;4949284;29;20424;-67
2023/02/12 06:50:52;;;;;;;;;;;;;;;-142.41;100.00;64449.00;4935520;29;19915;-64
2023/02/12 06:53:17;;;;;;;;;;;;;;;-142.41;100.00;64449.00;4935431;29;20290;-66
2023/02/12 06:55:43;;;;;;;;;;;;;;;-142.41;100.00;64449.00;4935579;29;19918;-67
2023/02/12 06:58:08;;;;;;;;;;;;;;;-142.41;100.00;64449.00;4935274;29;19911;-67
2023/02/12 07:00:33;;;;;;;;;;;;;;;-142.41;100.00;64449.00;4935254;29;19915;-67
2023/02/12 07:02:59;;;;;;;;;;;;;;;-142.41;100.00;64449.00;4934927;29;20341;-66
2023/02/12 07:05:24;;;;;;;;;;;;;;;-142.41;100.00;64449.00;4935369;29;19910;-66
2023/02/12 07:07:51;;;;;;;;;;;;;;;-142.41;100.00;64449.00;4935042;29;19915;-65
2023/02/12 07:10:17;;;;;;;;;;;;;;;-142.41;100.00;64449.00;4935054;29;19978;-67
2023/02/12 07:12:43;;;;;;;;;;;;;;;-142.41;100.00;64449.00;4935034;29;20359;-67
2023/02/12 07:15:08;;;;;;;;;;;;;;;-142.41;100.00;64449.00;4935013;29;19953;-68
2023/02/12 07:17:34;;;;;;;;;;;;;;;-142.41;100.00;64449.00;4935092;29;20311;-67
2023/02/12 07:19:59;;;;;;;;;;;;;;;-142.41;100.00;64449.00;4935209;29;19918;-69
2023/02/12 07:22:24;;;;;;;;;;;;;;;-142.41;100.00;64449.00;4934884;29;20008;-71
2023/02/12 07:24:50;;;;;;;;;;;;;;;-142.41;100.00;64449.00;4935156;29;19911;-68
2023/02/12 07:27:16;;;;;;;;;;;;;;;-142.41;100.00;64449.00;4935010;29;20319;-70
2023/02/12 07:29:41;;;;;;;;;;;;;;;-142.41;100.00;64449.00;4917853;29;19915;-66
2023/02/12 07:32:06;;;;;;;;;;;;;;;-142.41;100.00;64449.00;4905231;29;20343;-70
2023/02/12 07:34:32;;;;;;;;;;;;;;;-142.41;100.00;64449.00;4939048;29;20244;-71
2023/02/12 07:36:57;;;;;;;;;;;;;;;-142.41;100.00;64449.00;4938307;29;19910;-70
2023/02/12 07:39:22;;;;;;;;;;;;;;;-142.41;100.00;64449.00;4939019;29;20355;-69
2023/02/12 07:41:47;;;;;;;;;;;;;;;-142.41;100.00;64449.00;4938511;29;20314;-67
2023/02/12 07:44:13;;;;;;;;;;;;;;;-142.41;100.00;64449.00;4938541;29;19911;-67
2023/02/12 07:46:38;;;;;;;;;;;;;;;-142.41;100.00;64449.00;4921603;29;19918;-69
2023/02/12 07:49:04;;;;;;;;;;;;;;;-142.41;100.00;64449.00;4938708;29;19911;-64
2023/02/12 07:51:31;;;;;;;;;;;;;;;-142.41;100.00;64449.00;4921571;29;20017;-70
2023/02/12 07:53:57;;;;;;;;;;;;;;;-142.41;100.00;64449.00;4938621;29;20307;-67
2023/02/12 07:56:24;;;;;;;;;;;;;;;-142.41;100.00;64449.00;4938631;29;19937;-74
2023/02/12 07:58:51;;;;;;;;;;;;;;;-142.41;100.00;64449.00;4938302;29;20005;-69
2023/02/12 08:01:21;;;;;;;;;;;;;;;-142.41;100.00;64449.00;4938388;29;19982;-68
2023/02/12 08:03:47;;;;;;;;;;;;;;;-142.41;100.00;64449.00;4938616;29;19973;-71
2023/02/12 08:06:15;;;;;;;;;;;;;;;-142.41;100.00;64449.00;4938222;29;20414;-74
2023/02/12 08:08:42;;;;;;;;;;;;;;;-142.41;100.00;64449.00;4938188;29;20032;-72
2023/02/12 08:11:08;;;;;;;;;;;;;;;-142.41;100.00;64449.00;4938167;29;19915;-73
2023/02/12 08:13:34;;;;;;;;;;;;;;;-142.41;100.00;64449.00;4920472;29;20335;-71
2023/02/12 08:16:05;;;;;;;;;;;;;;;-142.41;100.00;64449.00;4938099;29;19915;-67
2023/02/12 08:18:31;;;;;;;;;;;;;;;-142.41;100.00;64449.00;4919258;29;19949;-69
2023/02/12 08:21:03;;;;;;;;;;;;;;;-142.41;100.00;64449.00;4937639;29;19922;-68
2023/02/12 08:23:29;;;;;;;;;;;;;;;-142.41;100.00;64449.00;4937513;29;19911;-69
2023/02/12 08:26:03;;;;;;;;;;;;;;;-142.41;100.00;64449.00;4937678;29;20013;-71
2023/02/12 08:28:28;;;;;;;;;;;;;;;-142.41;100.00;64449.00;4938230;29;19910;-67
2023/02/12 08:30:58;;;;;;;;;;;;;;;-142.41;100.00;64449.00;4922019;29;19990;-69
2023/02/12 08:33:23;;;;;;;;;;;;;;;-142.41;100.00;64449.00;4918679;29;19938;-68
2023/02/12 08:35:49;;;;;;;;;;;;;;;-142.41;100.00;64449.00;4939425;29;20367;-70
2023/02/12 08:38:14;;;;;;;;;;;;;;;-142.41;100.00;64449.00;4921321;29;19911;-71
2023/02/12 08:40:39;;;;;;;;;;;;;;;-142.41;100.00;64449.00;4919849;29;19911;-71
2023/02/12 08:43:04;;;;;;;;;;;;;;;-142.41;100.00;64449.00;4937364;29;19973;-67
2023/02/12 08:45:31;;;;;;;;;;;;;;;-142.41;100.00;64449.00;4937580;29;19911;-69
2023/02/12 08:47:56;;;;;;;;;;;;;;;-142.41;100.00;64449.00;4920526;29;20336;-71
2023/02/12 08:50:22;;;;;;;;;;;;;;;-142.41;100.00;64449.00;4937092;29;20045;-69
2023/02/12 08:52:51;;;;;;;;;;;;;;;-142.41;100.00;64449.00;4937447;29;19969;-71
2023/02/12 08:55:17;;;;;;;;;;;;;;;-142.41;100.00;64449.00;4937246;29;20021;-71
2023/02/12 08:57:42;;;;;;;;;;;;;;;-142.41;100.00;64449.00;4936809;29;20385;-71
2023/02/12 09:00:08;;;;;;;;;;;;;;;-142.41;100.00;64449.00;4936999;29;19917;-73
2023/02/12 09:02:33;;;;;;;;;;;;;;;-142.41;100.00;64449.00;4920230;29;20373;-72
2023/02/12 09:04:58;;;;;;;;;;;;;;;-142.41;100.00;64449.00;4919775;29;19911;-69
2023/02/12 09:07:24;;;;;;;;;;;;;;;-142.41;100.00;64449.00;4935939;29;19919;-67
2023/02/12 09:09:54;;;;;;;;;;;;;;;-142.41;100.00;64449.00;4919603;29;19965;-71
2023/02/12 09:12:19;;;;;;;;;;;;;;;-142.41;100.00;64449.00;4937029;29;20323;-71
2023/02/12 09:14:45;;;;;;;;;;;;;;;-142.41;100.00;64449.00;4920179;29;19911;-72
2023/02/12 09:17:10;;;;;;;;;;;;;;;-142.41;100.00;64449.00;4936971;29;19942;-70
2023/02/12 09:19:35;;;;;;;;;;;;;;;-142.41;100.00;64449.00;4936839;29;19939;-72
2023/02/12 09:22:01;;;;;;;;;;;;;;;-142.41;100.00;64449.00;4936778;29;19910;-73
2023/02/12 09:24:26;;;;;;;;;;;;;;;-142.41;100.00;64449.00;4937095;29;19947;-70
2023/02/12 09:26:51;;;;;;;;;;;;;;;-142.41;100.00;64449.00;4940498;29;19911;-72
2023/02/12 09:29:17;;;;;;;;;;;;;;;-142.41;100.00;64449.00;4944315;29;19918;-73
2023/02/12 09:31:42;;;;;;;;;;;;;;;-142.41;100.00;64449.00;4937141;29;20006;-69
2023/02/12 09:34:07;;;;;;;;;;;;;;;-142.41;100.00;64449.00;4936901;29;20318;-69
2023/02/12 09:36:34;;;;;;;;;;;;;;;-142.41;100.00;64449.00;4938148;29;19922;-71
2023/02/12 09:39:00;;;;;;;;;;;;;;;-142.41;100.00;64449.00;4937952;29;19918;-73
2023/02/12 09:41:29;;;;;;;;;;;;;;;-142.41;100.00;64449.00;4937075;29;19911;-72
2023/02/12 09:43:59;;;;;;;;;;;;;;;-142.41;100.00;64449.00;4936332;29;20315;-71
2023/02/12 09:46:24;;;;;;;;;;;;;;;-142.41;100.00;64449.00;4936289;29;19934;-71
2023/02/12 09:48:52;;;;;;;;;;;;;;;-142.41;100.00;64449.00;4935996;29;19911;-71
2023/02/12 09:51:18;;;;;;;;;;;;;;;-142.41;100.00;64449.00;4936236;29;19915;-71
2023/02/12 09:53:45;;;;;;;;;;;;;;;-142.41;100.00;64449.00;4935763;29;19921;-73
2023/02/12 09:56:17;;;;;;;;;;;;;;;-142.41;100.00;64449.00;4936235;29;20334;-70
2023/02/12 09:58:45;;;;;;;;;;;;;;;-142.41;100.00;64449.00;4937090;29;19917;-72
2023/02/12 10:01:12;;;;;;;;;;;;;;;-142.41;100.00;64449.00;4936320;29;19911;-70
2023/02/12 10:03:38;;;;;;;;;;;;;;;-142.41;100.00;64449.00;4918712;29;19911;-71
2023/02/12 10:06:05;;;;;;;;;;;;;;;-142.41;100.00;64449.00;4918633;29;19969;-76
2023/02/12 10:08:38;;;;;;;;;;;;;;;-142.41;100.00;64449.00;4936024;29;19915;-73
2023/02/12 10:11:04;;;;;;;;;;;;;;;-142.41;100.00;64449.00;4936260;29;20010;-74
2023/02/12 10:13:50;;;;;;;;;;;;;;;-142.41;100.00;64449.00;4936009;29;19915;-72
2023/02/12 10:16:19;;;;;;;;;;;;;;;-142.41;100.00;64449.00;4935627;29;19943;-71
2023/02/12 10:18:47;;;;;;;;;;;;;;;-142.41;100.00;64449.00;4935975;29;19988;-68
2023/02/12 10:21:31;;;;;;;;;;;;;;;-142.41;100.00;64449.00;4935983;29;19911;-72
2023/02/12 10:24:06;;;;;;;;;;;;;;;-142.41;100.00;64449.00;4935592;29;19917;-71
2023/02/12 10:26:34;;;;;;;;;;;;;;;-142.41;100.00;64449.00;4934940;29;19910;-71
2023/02/12 10:29:14;;;;;;;;;;;;;;;-142.41;100.00;64449.00;4935630;29;19914;-72
2023/02/12 10:31:51;;;;;;;;;;;;;;;-142.41;100.00;64449.00;4935810;29;19926;-73
2023/02/12 10:34:19;;;;;;;;;;;;;;;-142.41;100.00;64449.00;4935794;29;19910;-72
2023/02/12 10:36:46;;;;;;;;;;;;;;;-142.41;100.00;64449.00;4935678;29;19910;-71
2023/02/12 10:39:18;;;;;;;;;;;;;;;-142.41;100.00;64449.00;4935707;29;19918;-68
2023/02/12 10:41:46;;;;;;;;;;;;;;;-142.41;100.00;64449.00;4935771;29;19914;-70
2023/02/12 10:44:11;;;;;;;;;;;;;;;-142.41;100.00;64449.00;4935511;29;19911;-70
2023/02/12 10:46:37;;;;;;;;;;;;;;;-142.41;100.00;64449.00;4922747;29;19916;-69
2023/02/12 10:49:04;;;;;;;;;;;;;;;-142.41;100.00;64449.00;4936182;29;20410;-71
2023/02/12 10:51:41;;;;;;;;;;;;;;;-142.41;100.00;64449.00;4935406;29;19917;-70
2023/02/12 10:54:34;;;;;;;;;;;;;;;-142.41;100.00;64449.00;4935431;29;19922;-73
2023/02/12 10:57:05;;;;;;;;;;;;;;;-142.41;100.00;64449.00;4935392;29;19915;-71
2023/02/12 10:59:30;;;;;;;;;;;;;;;-142.41;100.00;64449.00;4935504;29;20005;-71
2023/02/12 11:01:55;;;;;;;;;;;;;;;-142.41;100.00;64449.00;4935056;29;20387;-70
2023/02/12 11:04:26;;;;;;;;;;;;;;;-142.41;100.00;64449.00;4934538;29;19915;-74
2023/02/12 11:07:03;;;;;;;;;;;;;;;-142.41;100.00;64449.00;4935375;29;19917;-69
2023/02/12 11:09:39;;;;;;;;;;;;;;;-142.41;100.00;64449.00;4935824;29;19915;-71
2023/02/12 11:12:14;;;;;;;;;;;;;;;-142.41;100.00;64449.00;4919327;29;19969;-70
2023/02/12 11:14:42;;;;;;;;;;;;;;;-142.41;100.00;64449.00;4935744;29;20346;-70
2023/02/12 11:17:20;;;;;;;;;;;;;;;-142.41;100.00;64449.00;4935107;29;19911;-71
2023/02/12 11:20:10;;;;;;;;;;;;;;;-142.41;100.00;64449.00;4934866;29;20270;-73
2023/02/12 11:22:35;;;;;;;;;;;;;;;-142.41;100.00;64449.00;4935387;29;19910;-70
2023/02/12 11:25:07;;;;;;;;;;;;;;;-142.41;100.00;64449.00;4935993;29;19918;-69
2023/02/12 11:27:32;;;;;;;;;;;;;;;-142.41;100.00;64449.00;4937454;29;19911;-75
2023/02/12 11:30:07;;;;;;;;;;;;;;;-142.41;100.00;64449.00;4935890;29;19943;-71
2023/02/12 11:32:32;;;;;;;;;;;;;;;-142.41;100.00;64449.00;4935645;29;19933;-74
2023/02/12 11:35:10;;;;;;;;;;;;;;;-142.41;100.00;64449.00;4935089;29;20359;-69
2023/02/12 11:37:38;;;;;;;;;;;;;;;-142.41;100.00;64449.00;4934160;29;20310;-74
2023/02/12 11:40:04;;;;;;;;;;;;;;;-142.41;100.00;64449.00;4935350;29;19919;-77
2023/02/12 11:42:33;;;;;;;;;;;;;;;-142.41;100.00;64449.00;4935469;29;19910;-77
2023/02/12 11:44:58;;;;;;;;;;;;;;;-142.41;100.00;64449.00;4934460;29;19910;-72
2023/02/12 11:47:34;;;;;;;;;;;;;;;-142.41;100.00;64449.00;4935670;29;19958;-70
2023/02/12 11:50:03;;;;;;;;;;;;;;;-142.41;100.00;64449.00;4935428;29;19910;-72
2023/02/12 11:52:30;;;;;;;;;;;;;;;-142.41;100.00;64449.00;4935365;29;19910;-71
2023/02/12 11:54:59;;;;;;;;;;;;;;;-142.41;100.00;64449.00;4934956;29;19919;-71
2023/02/12 11:57:42;;;;;;;;;;;;;;;-142.41;100.00;64449.00;4935031;29;20002;-71
2023/02/12 12:00:13;;;;;;;;;;;;;;;-142.41;100.00;64449.00;4934831;29;19915;-73
2023/02/12 12:02:45;;;;;;;;;;;;;;;-142.41;100.00;64449.00;4917099;29;19974;-71
2023/02/12 12:05:14;;;;;;;;;;;;;;;-142.41;100.00;64449.00;4937174;29;19961;-69
2023/02/12 12:07:42;;;;;;;;;;;;;;;-142.41;100.00;64449.00;4922775;29;20451;-67
2023/02/12 12:10:18;;;;;;;;;;;;;;;-142.41;100.00;64449.00;4934255;29;19914;-67
2023/02/12 12:12:50;;;;;;;;;;;;;;;-142.41;100.00;64449.00;4933801;29;19911;-69
2023/02/12 12:21:02;;;;;;;;;;;;;;;-142.41;100.00;64449.00;4920816;29;19917;-68
2023/02/12 12:23:34;;;;;;;;;;;;;;;-142.41;100.00;64449.00;4920474;29;19911;-69
2023/02/12 12:26:26;;;;;;;;;;;;;;;-142.41;100.00;64449.00;4938649;29;20310;-68
2023/02/12 12:29:10;;;;;;;;;;;;;;;-142.41;100.00;64449.00;4903744;29;20378;-67
2023/02/12 12:31:49;;;;;;;;;;;;;;;-142.41;100.00;64449.00;4936783;29;20365;-65